Portada
METAR-TAF:

METAR-TAF

Aeroports :

Tuscaloosa, Alabama, Estats Units d'Amèrica

latitud: 33-12-43N, longitud: 087-36-57W, altitud: 52 m

Observació

L'informe es va fer fa 53 minuts, a les 07:53 UTC
Vent 4 kt del Oest/Nord-Oest
Temperatura -3°C
Humitat 80%
Pressió 1030 hPa
Visibilitat: 16.1 km
Cel clar

METAR: KTCL 220753Z AUTO 30004KT 10SM CLR M03/M06 A3042 RMK AO2 SLP301 T10331061

Hora: 02:46 (08:46 UTC)

Pronòstic

L'informe es va fer fa 3 hores i 13 minuts, a les 05:33 UTC
Pronòstic vàlid del 22 a les 06 UTC al 23 a les 06 UTC
Vent 2 kt amb direcció variable
Visibilitat: 10 km
Cel clar
A partir de les 22 a les 1700 UTC
Vent 7 kt del Sud/Sud-Est
Visibilitat: 10 km
Cel ennuvolat a una alçada de 25000 ft
A partir de les 23 a les 0000 UTC
Vent 2 kt del Est/Sud-Est
Visibilitat: 10 km
Cel cobert a una alçada de 25000 ft

TAF: KTCL 220533Z 2206/2306 VRB02KT P6SM SKC FM221700 15007KT P6SM BKN250 FM230000 12002KT P6SM OVC250

Observacions i pronòstics meteorològics de més de 4000 aeroports (METAR i TAF).

Les estacions disponibles són els punts grocs i vermells al mapa.

Posi el ratolí al punt desitjat per veure el nom de l'estació.

Feu clic per veure les observacions i els pronòstics meteorològics.

Per canviar el mapa: feu clic els botons verds amb una creu de color negre per apropar; al botó verd amb un guió per allunyar la imatge; o en les fletxes verdes per a mapes adjacents.


METAR-TAF: